Time;durP1;ratioP1;P1;durP2;ratioP2;P2;SDS_P1;SDS_P2;PMS_P1;PMS_P2;Temp;Humidity;BMP_temperature;BMP_pressure;BME280_temperature;BME280_humidity;BME280_pressure;Samples;Min_cycle;Max_cycle;Signal;HPM_P1;HPM_P2
2023/09/23 00:00:14;;;;;;;1.90;1.60;;;20.50;67.60;21.20;100002.00;;;;5009362;28;20612;-53
2023/09/23 00:02:43;;;;;;;2.57;1.50;;;20.40;67.60;21.20;100009.00;;;;5007830;28;20644;-53
2023/09/23 00:05:11;;;;;;;1.53;1.40;;;20.40;67.40;21.20;100023.00;;;;5007000;28;20183;-53
2023/09/23 00:07:39;;;;;;;1.57;1.40;;;20.40;67.60;21.20;100013.00;;;;5009283;28;20181;-54
2023/09/23 00:10:09;;;;;;;1.57;1.47;;;20.40;67.60;21.20;100029.00;;;;5011707;28;20175;-53
2023/09/23 00:12:36;;;;;;;1.57;1.47;;;20.40;67.70;21.10;100028.00;;;;5011499;28;20277;-54
2023/09/23 00:15:03;;;;;;;1.37;1.27;;;20.40;67.70;21.10;100028.00;;;;5011547;28;20195;-53
2023/09/23 00:17:29;;;;;;;1.70;1.50;;;20.40;67.60;21.10;100013.00;;;;5011112;28;20241;-54
2023/09/23 00:19:56;;;;;;;1.90;1.50;;;20.40;67.70;21.10;100024.00;;;;5011453;28;20547;-54
2023/09/23 00:22:21;;;;;;;1.40;1.30;;;20.30;67.60;21.10;100020.00;;;;5010009;28;20171;-53
2023/09/23 00:24:50;;;;;;;1.67;1.43;;;20.30;67.70;21.10;100035.00;;;;5010365;28;20318;-53
2023/09/23 00:27:17;;;;;;;1.40;1.30;;;20.30;67.70;21.10;100020.00;;;;5011203;28;20205;-53
2023/09/23 00:29:44;;;;;;;1.47;1.30;;;20.30;67.70;21.10;100024.00;;;;5011097;28;20241;-53
2023/09/23 00:32:12;;;;;;;1.47;1.37;;;20.30;67.60;21.10;100020.00;;;;5011186;28;20208;-53
2023/09/23 00:34:39;;;;;;;1.90;1.50;;;20.30;67.60;21.00;100030.00;;;;5011222;28;20290;-53
2023/09/23 00:37:07;;;;;;;1.30;1.20;;;20.30;67.60;21.00;100033.00;;;;5011035;28;20700;-54
2023/09/23 00:39:41;;;;;;;1.30;1.20;;;20.30;67.60;21.00;100035.00;;;;5010771;28;20199;-54
2023/09/23 00:42:10;;;;;;;1.47;1.37;;;20.30;67.70;21.00;100047.00;;;;5010888;28;20207;-54
2023/09/23 00:44:42;;;;;;;1.37;1.27;;;20.20;67.60;21.00;100043.00;;;;5010445;28;20996;-53
2023/09/23 00:47:12;;;;;;;1.30;1.20;;;20.30;67.80;21.00;100045.00;;;;5010795;28;20231;-53
2023/09/23 00:49:38;;;;;;;1.50;1.40;;;20.20;67.60;21.00;100043.00;;;;5009100;28;20354;-53
2023/09/23 00:52:05;;;;;;;1.40;1.30;;;20.20;67.70;21.00;100043.00;;;;5010727;28;20209;-54
2023/09/23 00:54:33;;;;;;;1.03;1.03;;;20.20;67.60;21.00;100062.00;;;;5009221;28;20206;-54
2023/09/23 00:57:00;;;;;;;1.50;1.40;;;20.20;67.70;20.90;100057.00;;;;4992939;28;20187;-54
2023/09/23 00:59:27;;;;;;;1.63;1.40;;;20.20;67.50;21.00;100065.00;;;;5010464;28;20195;-53
2023/09/23 01:01:56;;;;;;;1.50;1.40;;;20.20;67.60;20.90;100008.00;;;;5010472;28;20633;-52
2023/09/23 01:04:22;;;;;;;1.37;1.27;;;20.20;67.50;20.90;100067.00;;;;5009374;28;20182;-52
2023/09/23 01:06:48;;;;;;;1.40;1.30;;;20.20;67.60;20.90;100064.00;;;;5010550;28;20190;-53
2023/09/23 01:09:21;;;;;;;1.30;1.20;;;20.20;67.60;20.90;100062.00;;;;5010502;28;20194;-53
2023/09/23 01:11:51;;;;;;;1.67;1.50;;;20.20;67.80;20.90;100064.00;;;;5010428;28;20318;-53
2023/09/23 01:14:25;;;;;;;1.50;1.40;;;20.20;67.70;20.90;100065.00;;;;5010373;28;20243;-52
2023/09/23 01:16:51;;;;;;;1.37;1.30;;;20.10;67.60;20.90;100068.00;;;;5014045;28;20198;-53
2023/09/23 01:19:25;;;;;;;1.80;1.60;;;20.10;67.60;20.90;100074.00;;;;5014226;28;20545;-53
2023/09/23 01:21:51;;;;;;;1.70;1.40;;;20.10;67.70;20.90;100073.00;;;;5013418;28;20213;-53
2023/09/23 01:24:17;;;;;;;1.40;1.30;;;20.10;67.60;20.90;100073.00;;;;5010301;28;20185;-53
2023/09/23 01:26:51;;;;;;;1.50;1.40;;;20.10;67.70;20.80;100081.00;;;;5010210;28;20645;-53
2023/09/23 01:29:23;;;;;;;1.50;1.40;;;20.10;67.70;20.80;100075.00;;;;5013353;28;20206;-54
2023/09/23 01:32:25;;;;;;;1.57;1.47;;;20.10;67.80;20.50;100089.00;;;;5024493;28;20214;-53
2023/09/23 01:34:52;;;;;;;1.50;1.40;;;20.10;67.70;20.80;100093.00;;;;4994258;28;20266;-53
2023/09/23 01:37:19;;;;;;;1.40;1.30;;;20.10;67.70;20.80;100088.00;;;;5010877;28;20209;-54
2023/09/23 01:39:47;;;;;;;1.23;1.23;;;20.10;67.60;20.80;100089.00;;;;5010316;28;20232;-53
2023/09/23 01:42:13;;;;;;;1.43;1.33;;;20.00;67.50;20.80;100100.00;;;;5010470;28;20222;-53
2023/09/23 01:44:40;;;;;;;1.60;1.50;;;20.00;67.50;20.80;100090.00;;;;5016836;28;20438;-53
2023/09/23 01:47:05;;;;;;;1.40;1.30;;;20.00;67.60;20.80;100096.00;;;;5014997;28;20509;-53
2023/09/23 01:49:31;;;;;;;1.50;1.40;;;20.10;67.80;20.70;100103.00;;;;5009831;28;20187;-53
2023/09/23 01:51:57;;;;;;;1.90;1.53;;;20.10;67.90;20.70;100107.00;;;;5008539;28;20670;-53
2023/09/23 01:54:23;;;;;;;1.57;1.47;;;20.00;67.90;20.70;100106.00;;;;5009413;28;20254;-54
2023/09/23 01:56:49;;;;;;;1.70;1.43;;;20.00;67.70;20.70;100112.00;;;;5009653;28;20191;-52
2023/09/23 01:59:14;;;;;;;1.50;1.40;;;20.00;67.80;20.70;100116.00;;;;5008251;28;20653;-53
2023/09/23 02:01:41;;;;;;;1.60;1.50;;;20.00;67.80;20.70;100114.00;;;;5009335;28;20696;-53
2023/09/23 02:04:11;;;;;;;2.03;1.47;;;20.00;67.80;20.70;100124.00;;;;5009433;28;20548;-53
2023/09/23 02:06:43;;;;;;;1.50;1.40;;;19.90;67.70;20.60;100121.00;;;;5009487;28;20715;-53
2023/09/23 02:09:09;;;;;;;1.40;1.30;;;20.00;67.80;20.60;100129.00;;;;5008247;28;20282;-54
2023/09/23 02:11:38;;;;;;;1.90;1.53;;;19.90;67.70;20.70;100129.00;;;;5009103;28;20199;-54
2023/09/23 02:14:07;;;;;;;1.50;1.40;;;19.90;67.80;20.70;100134.00;;;;5008986;28;20173;-53
2023/09/23 02:16:33;;;;;;;1.37;1.27;;;19.90;67.70;20.60;100142.00;;;;5009102;28;20183;-53
2023/09/23 02:18:59;;;;;;;1.50;1.40;;;19.90;67.70;20.60;100144.00;;;;5009624;28;20257;-53
2023/09/23 02:21:27;;;;;;;1.03;1.03;;;19.90;67.70;20.60;100149.00;;;;5009547;28;20576;-53
2023/09/23 02:23:55;;;;;;;1.70;1.43;;;19.90;67.70;20.60;100148.00;;;;5009230;28;20188;-50
2023/09/23 02:26:22;;;;;;;1.50;1.40;;;19.90;67.60;20.60;100146.00;;;;5008848;28;20189;-53
2023/09/23 02:28:48;;;;;;;1.60;1.50;;;19.90;67.60;20.60;100152.00;;;;5008702;28;20191;-53
2023/09/23 02:31:15;;;;;;;1.43;1.27;;;19.90;67.60;20.60;100148.00;;;;5008741;28;20293;-53
2023/09/23 02:33:40;;;;;;;1.50;1.40;;;19.90;67.60;20.60;100161.00;;;;5008935;28;20208;-53
2023/09/23 02:36:06;;;;;;;2.20;1.40;;;19.90;67.60;20.60;100155.00;;;;5008989;28;20217;-53
2023/09/23 02:38:32;;;;;;;1.60;1.50;;;19.90;67.60;20.60;100154.00;;;;5008804;28;20187;-52
2023/09/23 02:41:05;;;;;;;1.50;1.40;;;19.90;67.80;20.60;100161.00;;;;5007423;28;20285;-53
2023/09/23 02:43:30;;;;;;;2.00;1.50;;;19.90;67.90;20.60;100166.00;;;;5008503;28;20211;-53
2023/09/23 02:45:56;;;;;;;1.60;1.37;;;19.90;67.80;20.60;100166.00;;;;5008762;28;20302;-52
2023/09/23 02:48:23;;;;;;;1.67;1.23;;;19.80;67.70;20.60;100166.00;;;;5008449;28;20188;-53
2023/09/23 02:50:49;;;;;;;1.60;1.50;;;19.80;67.70;20.30;100170.00;;;;5008951;28;20234;-53
2023/09/23 02:53:14;;;;;;;1.43;1.33;;;19.80;67.80;20.50;100174.00;;;;5008954;28;20293;-53
2023/09/23 02:55:42;;;;;;;2.30;1.67;;;19.80;67.70;20.50;100165.00;;;;5007172;28;20830;-54
2023/09/23 02:58:10;;;;;;;1.67;1.47;;;19.80;67.70;20.50;100171.00;;;;5008683;28;20187;-53
2023/09/23 03:00:37;;;;;;;1.40;1.30;;;19.80;67.60;20.50;100166.00;;;;5008919;28;20659;-53
2023/09/23 03:03:08;;;;;;;2.13;1.53;;;19.80;67.60;20.50;100172.00;;;;5010063;28;20190;-53
2023/09/23 03:05:38;;;;;;;1.50;1.40;;;19.80;67.60;20.50;100172.00;;;;5009903;28;20805;-53
2023/09/23 03:08:07;;;;;;;3.67;1.70;;;19.80;67.60;20.50;100176.00;;;;5009621;28;20193;-53
2023/09/23 03:10:34;;;;;;;1.97;1.50;;;19.80;67.60;20.50;100174.00;;;;5004439;28;20213;-53
2023/09/23 03:13:05;;;;;;;1.50;1.40;;;19.80;67.60;20.50;100178.00;;;;5009658;28;20265;-53
2023/09/23 03:15:44;;;;;;;1.50;1.40;;;19.80;67.60;20.50;100182.00;;;;5009810;28;20364;-53
2023/09/23 03:18:10;;;;;;;1.80;1.60;;;19.70;67.40;20.40;100184.00;;;;5009418;28;20203;-53
2023/09/23 03:20:40;;;;;;;2.00;1.60;;;19.80;67.60;20.40;100177.00;;;;5009563;28;20565;-53
2023/09/23 03:23:09;;;;;;;1.50;1.40;;;19.80;67.60;20.40;100166.00;;;;5009642;28;20276;-52
2023/09/23 03:25:45;;;;;;;1.67;1.57;;;19.70;67.40;20.40;100183.00;;;;5009717;28;20189;-53
2023/09/23 03:28:11;;;;;;;1.63;1.53;;;19.80;67.60;20.40;100172.00;;;;5011732;28;20586;-53
2023/09/23 03:30:36;;;;;;;4.40;1.80;;;19.70;67.70;20.40;100177.00;;;;5024246;28;20211;-53
2023/09/23 03:33:02;;;;;;;6.17;1.53;;;19.70;68.00;20.40;100182.00;;;;5010315;28;20179;-53
2023/09/23 03:35:30;;;;;;;3.20;1.50;;;19.70;67.70;20.40;100183.00;;;;5010477;28;20225;-53
2023/09/23 03:37:56;;;;;;;1.83;1.50;;;19.70;67.60;20.40;100165.00;;;;5008622;28;20190;-53
2023/09/23 03:40:24;;;;;;;1.93;1.60;;;19.70;67.50;20.40;100173.00;;;;5010508;28;20203;-53
2023/09/23 03:42:50;;;;;;;4.73;1.37;;;19.70;67.40;20.40;100183.00;;;;5016300;28;20214;-53
2023/09/23 03:45:17;;;;;;;2.13;1.50;;;19.70;67.30;20.40;100184.00;;;;5027707;28;20657;-52
2023/09/23 03:47:47;;;;;;;2.30;1.50;;;19.70;67.30;20.40;100180.00;;;;5012830;28;20193;-53
2023/09/23 03:50:15;;;;;;;3.77;1.80;;;19.70;67.30;20.40;100178.00;;;;5013420;28;20212;-54
2023/09/23 03:52:42;;;;;;;1.90;1.60;;;19.70;67.20;20.40;100195.00;;;;5013234;28;20781;-53
2023/09/23 03:55:09;;;;;;;1.63;1.40;;;19.70;67.20;20.40;100190.00;;;;5011945;28;20209;-54
2023/09/23 03:57:35;;;;;;;1.70;1.60;;;19.70;67.20;20.40;100197.00;;;;5011537;28;20576;-53
2023/09/23 04:00:06;;;;;;;2.87;1.53;;;19.60;67.00;20.40;100198.00;;;;5013306;28;20172;-53
2023/09/23 04:02:33;;;;;;;1.83;1.40;;;19.60;67.00;20.30;100205.00;;;;5012598;28;20187;-53
2023/09/23 04:04:58;;;;;;;2.57;1.50;;;19.70;67.10;20.30;100214.00;;;;5013285;28;20215;-53
2023/09/23 04:07:24;;;;;;;1.37;1.27;;;19.60;67.00;20.30;100211.00;;;;5012376;28;20211;-53
2023/09/23 04:09:50;;;;;;;1.80;1.70;;;19.60;67.00;20.30;100206.00;;;;5010751;28;20238;-53
2023/09/23 04:12:17;;;;;;;2.03;1.53;;;19.60;67.00;20.30;100212.00;;;;5010109;28;20282;-52
2023/09/23 04:14:43;;;;;;;2.20;1.60;;;19.60;66.90;20.30;100213.00;;;;5011254;28;20238;-53
2023/09/23 04:17:08;;;;;;;3.13;1.87;;;19.60;67.80;20.30;100218.00;;;;5010737;28;20184;-54
2023/09/23 04:19:34;;;;;;;3.67;1.90;;;19.60;67.20;20.30;100221.00;;;;5011982;28;20203;-54
2023/09/23 04:22:00;;;;;;;2.87;1.70;;;19.60;67.20;20.30;100215.00;;;;5012380;28;20659;-54
2023/09/23 04:24:26;;;;;;;2.27;1.90;;;19.60;67.30;20.30;100215.00;;;;5012225;28;20210;-52
2023/09/23 04:26:53;;;;;;;3.53;1.97;;;19.50;67.40;20.30;100208.00;;;;5012151;28;20196;-53
2023/09/23 04:29:21;;;;;;;4.83;2.00;;;19.50;67.60;20.30;100214.00;;;;5008068;28;20182;-52
2023/09/23 04:31:48;;;;;;;6.53;2.00;;;19.50;67.50;20.30;100216.00;;;;5010520;28;20223;-52
2023/09/23 04:34:14;;;;;;;5.40;1.80;;;19.50;67.50;20.30;100224.00;;;;5012039;28;20185;-54
2023/09/23 04:36:40;;;;;;;5.30;2.13;;;19.50;67.50;20.30;100230.00;;;;5011833;28;20186;-52
2023/09/23 04:39:06;;;;;;;3.73;1.80;;;19.50;67.40;20.30;100239.00;;;;5011462;28;20180;-52
2023/09/23 04:41:33;;;;;;;3.63;2.10;;;19.50;67.40;20.30;100233.00;;;;5011546;28;20246;-51
2023/09/23 04:43:59;;;;;;;3.60;1.70;;;19.60;67.40;20.20;100229.00;;;;5011968;28;20188;-52
2023/09/23 04:46:24;;;;;;;5.23;2.10;;;19.50;67.70;20.20;100231.00;;;;5010251;28;20209;-51
2023/09/23 04:48:50;;;;;;;5.00;2.00;;;19.50;67.40;20.20;100229.00;;;;5011481;28;20183;-51
2023/09/23 04:51:17;;;;;;;5.03;2.00;;;19.50;67.40;20.20;100239.00;;;;5010921;28;20202;-51
2023/09/23 04:53:43;;;;;;;3.70;2.10;;;19.50;67.40;20.20;100241.00;;;;5011622;28;20182;-52
2023/09/23 04:56:10;;;;;;;3.37;2.03;;;19.50;67.40;20.20;100246.00;;;;5010380;28;20835;-52
2023/09/23 04:58:36;;;;;;;5.17;1.80;;;19.50;67.40;20.20;100248.00;;;;5011387;28;20237;-52
2023/09/23 05:01:03;;;;;;;6.10;2.10;;;19.50;67.40;20.20;100247.00;;;;5010953;28;20222;-52
2023/09/23 05:03:29;;;;;;;3.00;1.80;;;19.40;67.20;20.20;100257.00;;;;5011163;28;20198;-52
2023/09/23 05:05:55;;;;;;;4.07;1.93;;;19.50;67.40;20.20;100254.00;;;;5014422;28;20184;-51
2023/09/23 05:08:21;;;;;;;6.17;1.70;;;19.40;67.30;20.20;100263.00;;;;5015960;28;20180;-52
2023/09/23 05:10:47;;;;;;;5.00;1.70;;;19.40;67.20;20.20;100262.00;;;;5015732;28;20191;-52
2023/09/23 05:13:17;;;;;;;3.77;1.83;;;19.50;67.40;20.20;100271.00;;;;5011412;28;20178;-52
2023/09/23 05:15:43;;;;;;;2.70;1.60;;;19.40;67.20;20.20;100280.00;;;;5011199;28;20659;-52
2023/09/23 05:18:08;;;;;;;3.37;1.80;;;19.40;67.20;20.10;100281.00;;;;5010739;28;20222;-52
2023/09/23 05:20:34;;;;;;;2.00;1.60;;;19.50;67.40;20.10;100291.00;;;;5010474;28;20199;-52
2023/09/23 05:23:04;;;;;;;2.40;1.60;;;19.40;67.30;20.10;100291.00;;;;5011282;28;20180;-52
2023/09/23 05:25:31;;;;;;;3.60;1.70;;;19.40;67.20;20.10;100287.00;;;;5013857;28;20176;-60
2023/09/23 05:27:57;;;;;;;2.60;1.60;;;19.40;67.20;20.10;100293.00;;;;5029321;28;20185;-52
2023/09/23 05:30:25;;;;;;;2.77;1.80;;;19.30;67.10;20.10;100297.00;;;;5010953;28;20204;-52
2023/09/23 05:32:52;;;;;;;3.37;1.60;;;19.40;67.30;20.10;100306.00;;;;5011008;28;20190;-52
2023/09/23 05:35:18;;;;;;;2.17;1.63;;;19.40;67.30;20.10;100304.00;;;;5011607;28;20204;-52
2023/09/23 05:37:43;;;;;;;2.67;1.43;;;19.30;67.20;20.10;100315.00;;;;5011327;28;20191;-53
2023/09/23 05:42:49;;;;;;;1.90;1.40;;;19.40;67.30;20.10;100320.00;;;;5017291;28;20223;-52
2023/09/23 05:45:17;;;;;;;4.47;1.73;;;19.30;67.20;20.10;100334.00;;;;5016301;28;20179;-52
2023/09/23 05:47:42;;;;;;;2.40;1.60;;;19.30;67.20;20.10;100338.00;;;;5010179;28;20638;-52
2023/09/23 05:50:11;;;;;;;1.43;1.33;;;19.30;67.20;20.00;100336.00;;;;5009178;28;20191;-52
2023/09/23 05:52:37;;;;;;;2.00;1.70;;;19.30;67.20;20.00;100339.00;;;;5010464;28;20186;-52
2023/09/23 05:55:07;;;;;;;2.47;1.70;;;19.30;67.40;20.00;100340.00;;;;5009346;28;20201;-52
2023/09/23 05:57:38;;;;;;;2.23;1.50;;;19.30;67.20;20.00;100350.00;;;;5009282;28;20668;-52
2023/09/23 06:00:08;;;;;;;2.20;1.77;;;19.30;67.20;20.00;100360.00;;;;5010059;28;20180;-52
2023/09/23 06:02:34;;;;;;;1.70;1.60;;;19.30;67.30;20.00;100364.00;;;;5009622;28;20192;-52
2023/09/23 06:05:03;;;;;;;2.40;1.30;;;19.30;67.30;20.00;100375.00;;;;5009850;28;20676;-53
2023/09/23 06:07:31;;;;;;;1.70;1.50;;;19.20;67.10;20.00;100386.00;;;;5009581;28;20187;-52
2023/09/23 06:09:58;;;;;;;2.30;1.60;;;19.30;67.20;20.00;100387.00;;;;5009832;28;20202;-55
2023/09/23 06:12:29;;;;;;;1.43;1.30;;;19.30;67.30;20.00;100392.00;;;;5009823;28;20190;-51
2023/09/23 06:14:57;;;;;;;1.73;1.60;;;19.30;67.20;20.00;100394.00;;;;5009898;28;20609;-53
2023/09/23 06:17:24;;;;;;;2.10;1.50;;;19.20;67.10;20.00;100392.00;;;;5009679;28;20193;-52
2023/09/23 06:19:51;;;;;;;1.63;1.50;;;19.20;67.10;19.70;100391.00;;;;5009498;28;20197;-52
2023/09/23 06:22:17;;;;;;;2.43;1.40;;;19.20;67.10;19.90;100400.00;;;;5008154;28;20273;-53
2023/09/23 06:24:43;;;;;;;1.50;1.40;;;19.20;67.10;19.90;100411.00;;;;5009882;28;20824;-53
2023/09/23 06:27:08;;;;;;;1.97;1.70;;;19.20;67.20;19.90;100419.00;;;;5009779;28;20184;-52
2023/09/23 06:29:34;;;;;;;2.53;1.40;;;19.20;67.10;19.90;100412.00;;;;5008295;28;20179;-52
2023/09/23 06:32:00;;;;;;;1.50;1.40;;;19.20;67.20;19.90;100418.00;;;;5009380;28;20218;-52
2023/09/23 06:34:26;;;;;;;1.60;1.50;;;19.20;68.00;19.90;100423.00;;;;5009505;28;20211;-52
2023/09/23 06:36:51;;;;;;;1.53;1.43;;;19.20;67.20;19.90;100424.00;;;;5009453;28;20188;-52
2023/09/23 06:39:17;;;;;;;1.90;1.70;;;19.20;67.20;19.90;100444.00;;;;5009386;28;20527;-52
2023/09/23 06:41:43;;;;;;;2.00;1.57;;;19.20;67.20;19.90;100448.00;;;;5009376;28;20567;-52
2023/09/23 06:44:08;;;;;;;1.63;1.40;;;19.20;67.20;19.90;100449.00;;;;5006933;28;20182;-52
2023/09/23 06:46:34;;;;;;;2.47;1.80;;;19.20;67.20;19.90;100455.00;;;;5008636;28;20179;-53
2023/09/23 06:49:00;;;;;;;1.70;1.60;;;19.10;67.00;19.90;100453.00;;;;5007554;28;20190;-52
2023/09/23 06:51:27;;;;;;;2.33;1.70;;;19.10;67.00;19.90;100472.00;;;;5007965;28;20732;-52
2023/09/23 06:53:52;;;;;;;1.90;1.70;;;19.10;67.30;19.90;100475.00;;;;5003059;28;20183;-53
2023/09/23 06:56:18;;;;;;;8.83;1.90;;;19.10;67.30;19.90;100476.00;;;;5009059;28;20237;-52
2023/09/23 06:58:44;;;;;;;10.97;1.90;;;19.10;67.40;19.90;100478.00;;;;5008862;28;20176;-52
2023/09/23 07:01:10;;;;;;;2.33;1.90;;;19.10;67.60;19.90;100482.00;;;;5007617;28;20656;-52
2023/09/23 07:03:35;;;;;;;3.13;1.70;;;19.10;67.60;19.90;100469.00;;;;5009298;28;20188;-52
2023/09/23 07:06:02;;;;;;;3.10;1.63;;;19.10;67.50;19.90;100481.00;;;;5008988;28;20183;-52
2023/09/23 07:08:28;;;;;;;3.03;1.80;;;19.10;67.60;19.80;100462.00;;;;5008955;28;20191;-52
2023/09/23 07:10:55;;;;;;;2.93;1.77;;;19.10;67.60;19.80;100481.00;;;;5007750;28;20200;-52
2023/09/23 07:13:21;;;;;;;1.80;1.53;;;19.10;67.60;19.80;100495.00;;;;5009158;28;20185;-53
2023/09/23 07:15:46;;;;;;;4.07;1.83;;;19.10;67.60;19.80;100495.00;;;;5007893;28;20242;-53
2023/09/23 07:18:13;;;;;;;2.43;1.80;;;19.10;67.60;19.80;100497.00;;;;5010073;28;20188;-52
2023/09/23 07:20:39;;;;;;;2.60;1.90;;;19.10;67.60;19.80;100482.00;;;;5012766;28;20224;-52
2023/09/23 07:23:05;;;;;;;2.27;1.60;;;19.00;67.50;19.80;100503.00;;;;5022648;28;20168;-54
2023/09/23 07:25:38;;;;;;;2.20;1.70;;;19.10;67.60;19.80;100505.00;;;;5024046;28;20278;-53
2023/09/23 07:28:06;;;;;;;2.17;1.73;;;19.00;67.50;19.80;100507.00;;;;5014130;28;20187;-53
2023/09/23 07:30:36;;;;;;;4.97;1.70;;;19.00;67.50;19.80;100511.00;;;;5013566;28;20201;-53
2023/09/23 07:33:02;;;;;;;2.30;1.50;;;19.00;67.60;19.80;100509.00;;;;5014440;28;20183;-52
2023/09/23 07:35:34;;;;;;;2.33;1.70;;;19.00;67.50;19.80;100518.00;;;;5014354;28;20290;-52
2023/09/23 07:38:00;;;;;;;1.80;1.70;;;19.00;67.50;19.80;100522.00;;;;5029091;28;20175;-53
2023/09/23 07:40:27;;;;;;;2.63;1.33;;;19.00;67.60;19.80;100518.00;;;;5016426;28;20195;-52
2023/09/23 07:42:53;;;;;;;1.40;1.30;;;19.00;67.60;19.80;100529.00;;;;5012954;28;20187;-52
2023/09/23 07:45:19;;;;;;;2.20;1.70;;;19.00;67.60;19.80;100534.00;;;;5012995;28;20189;-51
2023/09/23 07:47:45;;;;;;;3.43;1.77;;;19.00;67.70;19.80;100535.00;;;;5012189;28;20566;-51
2023/09/23 07:50:11;;;;;;;2.07;1.57;;;19.00;67.80;19.80;100539.00;;;;5011946;28;20194;-52
2023/09/23 07:52:37;;;;;;;4.47;1.73;;;19.00;67.80;19.80;100537.00;;;;5012448;28;20188;-51
2023/09/23 07:55:04;;;;;;;3.10;2.00;;;19.00;67.80;19.80;100541.00;;;;5012776;28;20204;-52
2023/09/23 07:57:33;;;;;;;2.30;1.43;;;19.00;67.80;19.70;100544.00;;;;5012379;28;20181;-52
2023/09/23 07:59:59;;;;;;;3.63;1.70;;;19.00;67.80;19.70;100544.00;;;;5012988;28;20230;-52
2023/09/23 08:02:25;;;;;;;3.50;1.60;;;19.00;67.90;19.70;100547.00;;;;5012943;28;20179;-53
2023/09/23 08:04:51;;;;;;;2.60;1.50;;;19.00;67.80;19.80;100565.00;;;;5012760;28;20187;-53
2023/09/23 08:07:17;;;;;;;5.30;1.70;;;19.00;67.80;19.80;100570.00;;;;5012408;28;20520;-52
2023/09/23 08:09:43;;;;;;;1.70;1.50;;;19.00;67.80;19.70;100557.00;;;;5010242;28;20701;-53
2023/09/23 08:12:09;;;;;;;2.73;1.50;;;19.00;67.80;19.70;100558.00;;;;5008982;28;20199;-52
2023/09/23 08:14:35;;;;;;;1.60;1.50;;;19.00;68.00;19.70;100569.00;;;;5012574;28;20204;-52
2023/09/23 08:17:01;;;;;;;3.07;1.50;;;19.00;68.00;19.70;100568.00;;;;5012429;28;20266;-52
2023/09/23 08:19:27;;;;;;;1.87;1.70;;;18.90;67.70;19.70;100572.00;;;;5012108;28;20268;-52
2023/09/23 08:21:53;;;;;;;1.70;1.60;;;19.00;67.80;19.70;100572.00;;;;5012409;28;20206;-52
2023/09/23 08:24:21;;;;;;;2.13;1.50;;;19.00;68.00;19.70;100574.00;;;;5012434;28;20235;-53
2023/09/23 08:26:47;;;;;;;3.27;1.53;;;19.00;67.90;19.70;100576.00;;;;5012150;28;20189;-53
2023/09/23 08:29:14;;;;;;;1.60;1.50;;;18.90;67.80;19.70;100587.00;;;;5010741;28;20184;-51
2023/09/23 08:31:39;;;;;;;2.60;1.60;;;19.00;67.90;19.70;100581.00;;;;5012037;28;20674;-52
2023/09/23 08:34:09;;;;;;;2.27;1.60;;;18.90;67.80;19.70;100570.00;;;;5012465;28;20238;-52
2023/09/23 08:36:38;;;;;;;2.27;1.70;;;18.90;67.90;19.70;100589.00;;;;5012366;28;20218;-53
2023/09/23 08:39:09;;;;;;;2.47;1.60;;;18.90;67.80;19.70;100592.00;;;;5011757;28;20182;-52
2023/09/23 08:41:35;;;;;;;1.70;1.50;;;18.90;67.80;19.70;100601.00;;;;5012283;28;20199;-53
2023/09/23 08:44:08;;;;;;;1.60;1.50;;;18.90;67.90;19.70;100604.00;;;;5012118;28;20187;-53
2023/09/23 08:46:33;;;;;;;1.90;1.60;;;18.90;68.00;19.70;100612.00;;;;5010728;28;20195;-52
2023/09/23 08:48:59;;;;;;;1.50;1.40;;;18.90;68.00;19.70;100613.00;;;;5011818;28;20172;-52
2023/09/23 08:51:27;;;;;;;2.63;1.70;;;18.90;68.00;19.70;100610.00;;;;5012523;28;20211;-53
2023/09/23 08:53:53;;;;;;;1.83;1.40;;;18.90;68.10;19.70;100619.00;;;;5013807;28;20180;-52
2023/09/23 08:56:20;;;;;;;2.47;1.70;;;18.90;68.10;19.70;100628.00;;;;5012822;28;20211;-53
2023/09/23 08:58:48;;;;;;;1.63;1.50;;;18.90;68.90;19.70;100619.00;;;;5011665;28;20555;-53
2023/09/23 09:01:14;;;;;;;2.17;1.50;;;18.90;68.00;19.70;100626.00;;;;5012032;28;20204;-53
2023/09/23 09:03:40;;;;;;;1.60;1.50;;;18.90;68.10;19.70;100633.00;;;;5011559;28;20540;-53
2023/09/23 09:06:18;;;;;;;2.20;1.50;;;18.90;68.10;19.70;100625.00;;;;5011987;28;20266;-52
2023/09/23 09:08:44;;;;;;;1.47;1.37;;;18.90;68.20;19.70;100631.00;;;;5011471;28;20181;-53
2023/09/23 09:11:10;;;;;;;1.97;1.37;;;18.90;68.20;19.70;100628.00;;;;5011560;28;20203;-53
2023/09/23 09:13:36;;;;;;;2.70;1.60;;;18.90;68.20;19.70;100631.00;;;;5007056;28;20186;-54
2023/09/23 09:16:06;;;;;;;2.83;1.53;;;18.90;68.20;19.70;100635.00;;;;5010897;28;20195;-53
2023/09/23 09:18:32;;;;;;;2.83;1.57;;;18.90;68.20;19.70;100639.00;;;;5009390;28;20266;-53
2023/09/23 09:20:58;;;;;;;2.40;1.63;;;18.90;68.20;19.70;100644.00;;;;5017784;28;20334;-53
2023/09/23 09:23:32;;;;;;;2.77;1.70;;;18.90;68.20;19.70;100642.00;;;;5015376;28;20642;-53
2023/09/23 09:25:59;;;;;;;3.90;1.77;;;18.90;68.20;19.70;100638.00;;;;5011787;28;20210;-53
2023/09/23 09:28:24;;;;;;;2.60;1.57;;;18.90;68.20;19.70;100649.00;;;;5001028;28;20207;-54
2023/09/23 09:30:56;;;;;;;2.37;1.50;;;18.90;68.20;19.70;100660.00;;;;5010913;28;20855;-53
2023/09/23 09:33:26;;;;;;;5.07;1.90;;;18.90;68.20;19.70;100656.00;;;;5008602;28;20177;-52
2023/09/23 09:35:58;;;;;;;6.47;2.03;;;18.90;68.20;19.70;100657.00;;;;5022216;28;20349;-53
2023/09/23 09:38:27;;;;;;;4.97;1.87;;;18.90;68.20;19.70;100651.00;;;;5012779;28;20577;-52
2023/09/23 09:41:03;;;;;;;7.30;2.00;;;18.90;68.30;19.70;100659.00;;;;5009979;28;20204;-53
2023/09/23 09:43:31;;;;;;;3.43;1.93;;;18.80;68.20;19.70;100668.00;;;;4993832;28;20662;-53
2023/09/23 09:45:57;;;;;;;4.43;1.40;;;18.90;68.40;19.70;100661.00;;;;5002091;28;20226;-53
2023/09/23 09:48:25;;;;;;;7.73;1.93;;;18.90;68.30;19.70;100667.00;;;;5009031;28;20555;-52
2023/09/23 09:50:50;;;;;;;3.47;1.87;;;18.90;68.80;19.70;100670.00;;;;5010102;28;20686;-53
2023/09/23 09:53:17;;;;;;;4.73;1.70;;;18.90;68.60;19.70;100666.00;;;;5008567;28;20187;-53
2023/09/23 09:55:43;;;;;;;9.17;2.10;;;18.90;69.00;19.70;100655.00;;;;5008390;28;20214;-53
2023/09/23 09:58:09;;;;;;;7.13;1.90;;;18.90;69.40;19.60;100673.00;;;;4976689;28;20234;-53
2023/09/23 10:00:42;;;;;;;2.20;1.87;;;18.90;69.30;19.60;100691.00;;;;5009728;28;20235;-53
2023/09/23 10:03:11;;;;;;;6.23;2.20;;;18.90;69.40;19.60;100679.00;;;;5010175;28;20184;-53
2023/09/23 10:05:46;;;;;;;3.07;1.80;;;18.90;69.50;19.60;100681.00;;;;5008502;28;20183;-53
2023/09/23 10:08:27;;;;;;;6.20;1.73;;;18.90;69.60;19.70;100686.00;;;;5008522;28;20206;-52
2023/09/23 10:11:03;;;;;;;3.57;1.73;;;18.80;69.40;19.70;100677.00;;;;5009324;28;20567;-52
2023/09/23 10:13:31;;;;;;;5.27;1.80;;;18.90;69.40;19.70;100689.00;;;;5008978;28;20647;-54
2023/09/23 10:16:13;;;;;;;4.40;2.00;;;18.90;69.60;19.70;100680.00;;;;5009776;28;20687;-52
2023/09/23 10:18:42;;;;;;;3.77;1.63;;;18.90;69.70;19.70;100679.00;;;;5009851;28;20725;-53
2023/09/23 10:21:08;;;;;;;3.13;2.10;;;18.90;69.60;19.70;100677.00;;;;5010246;28;20215;-53
2023/09/23 10:23:35;;;;;;;3.20;1.80;;;18.90;69.80;19.70;100682.00;;;;5009693;28;20234;-53
2023/09/23 10:26:13;;;;;;;3.33;1.70;;;18.90;69.80;19.70;100682.00;;;;5009770;28;20217;-51
2023/09/23 10:28:39;;;;;;;3.30;1.50;;;18.90;70.00;19.70;100697.00;;;;5009530;28;20642;-52
2023/09/23 10:31:06;;;;;;;9.37;2.33;;;18.90;69.80;19.70;100694.00;;;;5009436;28;20242;-52
2023/09/23 10:33:34;;;;;;;6.63;2.43;;;18.90;69.90;19.70;100698.00;;;;5009363;28;20787;-52
2023/09/23 10:36:01;;;;;;;7.57;2.23;;;18.90;70.00;19.70;100704.00;;;;5008644;28;20286;-52
2023/09/23 10:38:30;;;;;;;6.33;2.47;;;18.90;69.90;19.70;100700.00;;;;5001267;28;20716;-52
2023/09/23 10:40:56;;;;;;;5.03;2.20;;;18.90;69.80;19.70;100705.00;;;;5008241;28;20224;-52
2023/09/23 10:43:22;;;;;;;6.00;2.30;;;18.90;69.70;19.70;100698.00;;;;5008330;28;20790;-52
2023/09/23 10:45:54;;;;;;;5.70;2.03;;;18.90;69.80;19.80;100707.00;;;;5009363;28;20198;-52
2023/09/23 10:48:20;;;;;;;6.27;2.40;;;18.90;69.80;19.80;100702.00;;;;5007904;28;20192;-52
2023/09/23 10:50:46;;;;;;;9.10;2.37;;;18.90;69.90;19.80;100706.00;;;;5009457;28;20216;-52